首页
METAR-TAF:

METAR-TAF

机场 :

格洛斯特, 英格兰

纬度: 51-54N, 经度: 002-10W, 海拔: 29米

当前天气观测

该预报发布于1小时和20分钟前的19:20 UTC
风速6节,风向西转西南
温度 7°C
湿度 87%
气压 1000 hPa
能见度10公里或以上
散云层高于3000英尺

METAR: EGBJ 121920Z 25006KT 9999 SCT030 07/05 Q1000

时间: 20:40 (20:40 UTC)

预报

该预报发布于3小时和44分钟前的16:56 UTC
预报有效从12日的 18点(UTC)到 12日的 20点(UTC)
风速6节,风向西
能见度10公里或以上
少量云层高于2000英尺
多云层高于2500英尺
几率 30% :
短暂存在
从 12日的 18点(UTC)到 12日的 20点(UTC)
能見度: 6000
多云层高于1400英尺
阵雨

TAF: EGBJ 121656Z 1218/1220 26006KT 9999 FEW020 BKN025 PROB30 TEMPO 1218/1220 6000 SHRA BKN014

超过4000个机场的气象观测和天气预报(METAR&TAF报告)。

可查询的气象台以黄色和红色小点在地图上表示。

将鼠标移到小点上方,可查看气象台名称。

然后点击查看天气观测和预报。

如需切换地图:点击带黑十字的绿色按钮放大地图;点击带横线的绿色按钮缩小地图;或者点击绿色箭头查看邻近地区的地图。


METAR-TAF: